Time;durP1;ratioP1;P1;durP2;ratioP2;P2;SDS_P1;SDS_P2;PMS_P1;PMS_P2;Temp;Humidity;BMP_temperature;BMP_pressure;BME280_temperature;BME280_humidity;BME280_pressure;Samples;Min_cycle;Max_cycle;Signal;HPM_P1;HPM_P2
2023/03/24 00:00:40;;;;;;;9.70;5.45;;;;;;;;;;4953396;28;20043;-85
2023/03/24 00:03:06;;;;;;;11.98;4.72;;;;;;;;;;4956505;28;20039;-86
2023/03/24 00:05:33;;;;;;;12.45;5.30;;;;;;;;;;4962900;28;20062;-86
2023/03/24 00:08:01;;;;;;;10.35;5.43;;;;;;;;;;4962458;28;20046;-85
2023/03/24 00:10:29;;;;;;;11.18;5.38;;;;;;;;;;4970184;28;20121;-86
2023/03/24 00:12:57;;;;;;;9.82;4.80;;;;;;;;;;4965746;28;20560;-86
2023/03/24 00:15:23;;;;;;;11.18;5.20;;;;;;;;;;4955419;28;20042;-86
2023/03/24 00:17:50;;;;;;;11.43;5.10;;;12.00;99.90;;;;;;4949650;28;20093;-85
2023/03/24 00:20:16;;;;;;;11.82;4.68;;;;;;;;;;4956672;28;20490;-85
2023/03/24 00:22:49;;;;;;;12.02;4.40;;;11.80;99.90;;;;;;4950151;28;20419;-86
2023/03/24 00:25:16;;;;;;;11.82;4.60;;;;;;;;;;4962282;28;20129;-85
2023/03/24 00:27:43;;;;;;;10.48;4.88;;;;;;;;;;4961818;28;20496;-85
2023/03/24 00:30:10;;;;;;;12.02;5.18;;;;;;;;;;4946266;28;20573;-85
2023/03/24 00:32:37;;;;;;;9.73;5.00;;;;;;;;;;4950102;28;20493;-85
2023/03/24 00:35:07;;;;;;;9.23;5.20;;;;;;;;;;4963734;28;20051;-86
2023/03/24 00:37:36;;;;;;;8.52;4.32;;;;;;;;;;4964482;28;20086;-85
2023/03/24 00:40:05;;;;;;;9.95;4.13;;;;;;;;;;4949421;28;20094;-86
2023/03/24 00:42:32;;;;;;;12.20;4.63;;;;;;;;;;4950134;28;20050;-86
2023/03/24 00:44:58;;;;;;;14.57;5.30;;;;;;;;;;4957259;28;20055;-86
2023/03/24 00:47:25;;;;;;;9.27;4.70;;;;;;;;;;4950843;28;20046;-85
2023/03/24 00:49:52;;;;;;;8.45;4.13;;;;;;;;;;4963198;28;20098;-86
2023/03/24 00:52:19;;;;;;;10.45;5.35;;;;;;;;;;4944102;28;20049;-85
2023/03/24 00:54:50;;;;;;;7.60;5.10;;;;;;;;;;4949258;28;20070;-86
2023/03/24 00:57:20;;;;;;;10.30;5.05;;;;;;;;;;4962686;28;20043;-85
2023/03/24 00:59:47;;;;;;;15.20;5.15;;;;;;;;;;4966407;28;20082;-85
2023/03/24 01:02:15;;;;;;;12.10;5.18;;;;;;;;;;4950417;28;20390;-85
2023/03/24 01:04:46;;;;;;;10.73;4.55;;;;;;;;;;4955372;28;20169;-85
2023/03/24 01:07:12;;;;;;;9.88;4.97;;;;;;;;;;4949675;28;20050;-86
2023/03/24 01:09:39;;;;;;;8.75;4.85;;;;;;;;;;4949831;28;20488;-86
2023/03/24 01:12:05;;;;;;;7.25;4.15;;;;;;;;;;4950245;28;20039;-85
2023/03/24 01:14:32;;;;;;;8.65;4.28;;;;;;;;;;4958449;28;20042;-86
2023/03/24 01:16:58;;;;;;;12.25;4.75;;;;;;;;;;4948581;28;20038;-85
2023/03/24 01:19:25;;;;;;;8.40;4.43;;;;;;;;;;4959476;28;20411;-85
2023/03/24 01:21:53;;;;;;;9.07;4.43;;;;;;;;;;4957616;28;20469;-85
2023/03/24 01:24:20;;;;;;;10.07;4.63;;;;;;;;;;4949563;28;20059;-85
2023/03/24 01:26:46;;;;;;;9.60;4.30;;;;;;;;;;4944761;28;20043;-85
2023/03/24 01:29:12;;;;;;;8.80;4.43;;;;;;;;;;4949264;28;20081;-87
2023/03/24 01:31:38;;;;;;;12.05;5.00;;;;;;;;;;4952086;28;20094;-86
2023/03/24 01:34:04;;;;;;;8.57;4.85;;;;;;;;;;4963109;28;20434;-85
2023/03/24 01:36:31;;;;;;;13.57;4.43;;;;;;;;;;4958236;28;20366;-85
2023/03/24 01:38:59;;;;;;;9.98;4.85;;;;;;;;;;4956913;28;20065;-85
2023/03/24 01:41:27;;;;;;;8.38;4.93;;;;;;;;;;4959243;28;20055;-85
2023/03/24 01:43:53;;;;;;;8.52;4.10;;;;;;;;;;4955011;28;20464;-85
2023/03/24 01:46:20;;;;;;;10.20;4.68;;;12.00;99.90;;;;;;4949577;28;20053;-85
2023/03/24 01:48:49;;;;;;;8.23;4.70;;;;;;;;;;4952625;28;20110;-85
2023/03/24 01:51:19;;;;;;;8.60;4.80;;;;;;;;;;4950211;28;20125;-86
2023/03/24 01:53:57;;;;;;;7.32;4.00;;;;;;;;;;4960518;28;20045;-86
2023/03/24 01:56:23;;;;;;;5.63;4.28;;;11.90;99.90;;;;;;4967626;28;20439;-85
2023/03/24 01:58:56;;;;;;;5.63;3.72;;;;;;;;;;4958878;28;20073;-86
2023/03/24 02:01:25;;;;;;;6.47;4.30;;;;;;;;;;4949055;28;20140;-85
2023/03/24 02:03:51;;;;;;;9.02;5.18;;;;;;;;;;4961061;28;21019;-85
2023/03/24 02:06:18;;;;;;;9.98;4.13;;;;;;;;;;4952450;28;20136;-86
2023/03/24 02:08:58;;;;;;;8.18;4.70;;;;;;;;;;4957936;28;20050;-86
2023/03/24 02:11:26;;;;;;;7.28;3.92;;;;;;;;;;4950247;28;20097;-85
2023/03/24 02:13:52;;;;;;;7.53;4.57;;;;;;;;;;4967095;28;20043;-85
2023/03/24 02:16:18;;;;;;;6.53;4.72;;;;;;;;;;4952234;28;20045;-86
2023/03/24 02:19:03;;;;;;;6.47;4.25;;;;;;;;;;4960372;28;20077;-85
2023/03/24 02:21:59;;;;;;;9.18;4.55;;;12.10;99.90;;;;;;4949224;28;20448;-85
2023/03/24 02:24:35;;;;;;;7.95;4.45;;;;;;;;;;4965424;28;20097;-86
2023/03/24 02:27:20;;;;;;;8.30;4.43;;;;;;;;;;4961129;28;20512;-85
2023/03/24 02:30:03;;;;;;;8.88;4.53;;;;;;;;;;4967120;28;20045;-85
2023/03/24 02:32:48;;;;;;;7.75;4.13;;;;;;;;;;4982617;28;20047;-85
2023/03/24 02:35:23;;;;;;;8.90;4.50;;;;;;;;;;4966472;28;20497;-85
2023/03/24 02:38:09;;;;;;;;;;;12.30;99.90;;;;;;4948512;28;20126;-85
2023/03/24 02:40:41;;;;;;;7.15;4.25;;;;;;;;;;4947052;28;19928;-85
2023/03/24 02:43:37;;;;;;;8.63;4.47;;;12.20;99.90;;;;;;4962087;28;20047;-85
2023/03/24 02:46:12;;;;;;;8.02;4.05;;;;;;;;;;4961933;28;20493;-85
2023/03/24 02:49:05;;;;;;;8.02;4.45;;;12.10;99.90;;;;;;4952586;28;20047;-86
2023/03/24 02:51:51;;;;;;;8.50;4.68;;;12.00;99.90;;;;;;4969660;28;20078;-85
2023/03/24 02:54:20;;;;;;;7.57;4.57;;;;;;;;;;4961631;28;20109;-85
2023/03/24 02:56:57;;;;;;;8.82;5.03;;;12.00;99.90;;;;;;4962750;28;20038;-85
2023/03/24 02:59:39;;;;;;;7.70;4.85;;;;;;;;;;4964012;28;20054;-85
2023/03/24 03:02:12;;;;;;;6.80;4.80;;;;;;;;;;4966190;28;20038;-85
2023/03/24 03:04:44;;;;;;;7.15;4.88;;;;;;;;;;4968764;28;20042;-85
2023/03/24 03:07:11;;;;;;;6.47;4.40;;;;;;;;;;4964583;28;20048;-85
2023/03/24 03:09:39;;;;;;;7.75;4.45;;;;;;;;;;4968149;28;20056;-85
2023/03/24 03:12:09;;;;;;;8.93;5.13;;;12.30;99.90;;;;;;4967010;28;20436;-85
2023/03/24 03:14:44;;;;;;;7.47;5.00;;;12.10;99.90;;;;;;4953175;28;20038;-86
2023/03/24 03:17:18;;;;;;;7.78;4.90;;;12.00;99.90;;;;;;4960706;28;20187;-86
2023/03/24 03:19:51;;;;;;;8.40;4.63;;;12.00;99.90;;;;;;4980980;28;20077;-85
2023/03/24 03:22:23;;;;;;;8.45;5.22;;;12.00;99.90;;;;;;4964212;28;20077;-85
2023/03/24 03:24:51;;;;;;;6.80;3.95;;;;;;;;;;4970157;28;20053;-85
2023/03/24 03:27:26;;;;;;;5.97;3.90;;;12.20;99.90;;;;;;4953494;28;20439;-85
2023/03/24 03:29:59;;;;;;;3.63;3.33;;;11.80;99.90;;;;;;4961120;28;20565;-85
2023/03/24 03:32:28;;;;;;;5.35;3.53;;;12.10;99.90;;;;;;4960918;28;20665;-86
2023/03/24 03:35:18;;;;;;;3.60;2.88;;;12.00;99.90;;;;;;4977427;28;20492;-85
2023/03/24 03:37:59;;;;;;;4.82;2.85;;;;;;;;;;4966138;28;20330;-86
2023/03/24 03:40:50;;;;;;;5.53;2.45;;;11.90;99.90;;;;;;4951632;28;20042;-86
2023/03/24 03:43:17;;;;;;;4.18;2.53;;;;;;;;;;4950894;28;20564;-86
2023/03/24 03:45:43;;;;;;;5.68;2.53;;;;;;;;;;4952221;28;20058;-85
2023/03/24 03:48:09;;;;;;;7.30;2.53;;;;;;;;;;4951191;28;20120;-86
2023/03/24 03:50:37;;;;;;;9.38;2.47;;;;;;;;;;4951447;28;20042;-86
2023/03/24 03:53:03;;;;;;;6.57;2.45;;;;;;;;;;4953433;28;20038;-86
2023/03/24 03:55:30;;;;;;;5.00;2.70;;;;;;;;;;4949341;28;20124;-85
2023/03/24 03:57:57;;;;;;;4.55;2.10;;;;;;;;;;4954543;28;20049;-85
2023/03/24 04:00:23;;;;;;;6.63;2.10;;;;;;;;;;4951818;28;20382;-86
2023/03/24 04:03:00;;;;;;;9.43;2.17;;;;;;;;;;4964028;28;20042;-85
2023/03/24 04:05:35;;;;;;;7.28;1.88;;;11.30;99.90;;;;;;4963990;28;20456;-85
2023/03/24 04:08:24;;;;;;;11.00;2.83;;;11.40;99.90;;;;;;4953701;28;20140;-85
2023/03/24 04:10:59;;;;;;;8.35;2.08;;;;;;;;;;4957178;28;20133;-85
2023/03/24 04:13:25;;;;;;;;;;;;;;;;;;4950590;28;20133;-85
2023/03/24 04:15:51;;;;;;;10.18;2.10;;;;;;;;;;4966422;28;20012;-86
2023/03/24 04:18:17;;;;;;;11.15;2.53;;;;;;;;;;4963564;28;20579;-85
2023/03/24 04:20:48;;;;;;;8.07;1.55;;;;;;;;;;4953258;28;20450;-86
2023/03/24 04:23:26;;;;;;;5.93;1.88;;;;;;;;;;4953358;28;20046;-85
2023/03/24 04:25:57;;;;;;;7.50;2.03;;;;;;;;;;4963993;28;20084;-85
2023/03/24 04:28:29;;;;;;;10.27;2.10;;;;;;;;;;4951389;28;20078;-86
2023/03/24 04:31:25;;;;;;;8.43;1.80;;;11.00;99.90;;;;;;4960897;28;20153;-86
2023/03/24 04:33:57;;;;;;;7.50;2.25;;;;;;;;;;4963122;28;20406;-86
2023/03/24 04:36:44;;;;;;;14.88;2.80;;;;;;;;;;4965250;28;20042;-86
2023/03/24 04:39:12;;;;;;;9.60;2.80;;;;;;;;;;4964235;28;20058;-86
2023/03/24 04:41:39;;;;;;;10.48;3.35;;;;;;;;;;4960861;28;20115;-85
2023/03/24 04:44:05;;;;;;;10.40;2.50;;;;;;;;;;4952867;28;20042;-86
2023/03/24 04:46:32;;;;;;;9.02;2.05;;;;;;;;;;4952738;28;20081;-85
2023/03/24 04:48:58;;;;;;;8.38;2.72;;;;;;;;;;4963647;28;20558;-85
2023/03/24 04:51:27;;;;;;;9.32;3.50;;;;;;;;;;4959453;28;20043;-85
2023/03/24 04:53:53;;;;;;;10.70;2.70;;;;;;;;;;4950599;28;20479;-86
2023/03/24 04:56:38;;;;;;;13.75;3.17;;;;;;;;;;4946628;28;20483;-86
2023/03/24 04:59:05;;;;;;;7.75;2.38;;;;;;;;;;4952231;28;20047;-85
2023/03/24 05:01:36;;;;;;;9.10;2.78;;;;;;;;;;4941291;28;20057;-85
2023/03/24 05:04:03;;;;;;;7.13;2.22;;;;;;;;;;4956425;28;20047;-85
2023/03/24 05:06:29;;;;;;;16.00;2.75;;;;;;;;;;4967795;28;20115;-84
2023/03/24 05:08:57;;;;;;;8.35;2.35;;;;;;;;;;4955618;28;20043;-85
2023/03/24 05:11:23;;;;;;;14.23;3.28;;;;;;;;;;4958021;28;20575;-85
2023/03/24 05:13:49;;;;;;;16.40;3.40;;;;;;;;;;4941531;28;20049;-85
2023/03/24 05:16:16;;;;;;;17.45;3.17;;;;;;;;;;4957279;28;20472;-85
2023/03/24 05:18:42;;;;;;;13.88;3.50;;;;;;;;;;4952779;28;20050;-86
2023/03/24 05:21:08;;;;;;;14.70;3.40;;;;;;;;;;4961084;28;20453;-86
2023/03/24 05:23:34;;;;;;;13.43;3.20;;;;;;;;;;4961387;28;20042;-85
2023/03/24 05:26:00;;;;;;;14.70;3.25;;;;;;;;;;4965126;28;20039;-85
2023/03/24 05:28:26;;;;;;;13.63;3.00;;;;;;;;;;4948203;28;20105;-85
2023/03/24 05:30:52;;;;;;;12.18;2.97;;;;;;;;;;4956124;28;20411;-85
2023/03/24 05:33:18;;;;;;;11.85;3.10;;;;;;;;;;4956497;28;20047;-85
2023/03/24 05:35:44;;;;;;;10.82;2.25;;;;;;;;;;4963791;28;20045;-85
2023/03/24 05:38:10;;;;;;;13.00;3.63;;;;;;;;;;4958453;28;20793;-85
2023/03/24 05:40:36;;;;;;;14.27;3.30;;;;;;;;;;4957684;28;20093;-86
2023/03/24 05:43:03;;;;;;;14.65;2.28;;;;;;;;;;4958019;28;20046;-85
2023/03/24 05:45:29;;;;;;;14.02;2.80;;;;;;;;;;4951485;28;20058;-86
2023/03/24 05:47:55;;;;;;;13.50;2.40;;;;;;;;;;4962273;28;20056;-85
2023/03/24 05:50:23;;;;;;;16.95;3.22;;;;;;;;;;4964048;28;20054;-85
2023/03/24 05:52:49;;;;;;;10.55;3.83;;;;;;;;;;4959100;28;20049;-85
2023/03/24 05:55:16;;;;;;;7.70;2.13;;;;;;;;;;4952734;28;20125;-85
2023/03/24 05:57:42;;;;;;;9.98;2.22;;;;;;;;;;4956562;28;20374;-85
2023/03/24 06:00:15;;;;;;;14.27;3.00;;;;;;;;;;4956052;28;20042;-86
2023/03/24 06:02:41;;;;;;;10.00;3.53;;;;;;;;;;4958152;28;20085;-85
2023/03/24 06:05:08;;;;;;;13.43;2.67;;;;;;;;;;4967228;28;20051;-85
2023/03/24 06:07:35;;;;;;;9.00;2.22;;;;;;;;;;4947523;28;20046;-85
2023/03/24 06:10:03;;;;;;;13.52;2.70;;;;;;;;;;4956853;28;20675;-86
2023/03/24 06:12:30;;;;;;;13.07;2.67;;;;;;;;;;4954795;28;20041;-85
2023/03/24 06:14:59;;;;;;;6.30;2.22;;;;;;;;;;4968576;28;20044;-85
2023/03/24 06:17:27;;;;;;;12.90;3.60;;;;;;;;;;4957564;28;20134;-85
2023/03/24 06:19:53;;;;;;;10.77;3.28;;;;;;;;;;4961629;28;20502;-85
2023/03/24 06:22:19;;;;;;;11.65;2.30;;;;;;;;;;4967493;28;20046;-85
2023/03/24 06:24:46;;;;;;;10.63;2.75;;;;;;;;;;4962592;28;20046;-84
2023/03/24 06:27:13;;;;;;;10.63;2.72;;;;;;;;;;4966509;28;20415;-84
2023/03/24 06:29:41;;;;;;;11.70;3.00;;;;;;;;;;4968038;28;20042;-85
2023/03/24 06:32:07;;;;;;;11.55;2.50;;;;;;;;;;4952830;28;20404;-85
2023/03/24 06:34:33;;;;;;;19.38;3.38;;;;;;;;;;4965728;28;20100;-86
2023/03/24 06:36:59;;;;;;;13.90;2.85;;;;;;;;;;4965897;28;20042;-85
2023/03/24 06:39:25;;;;;;;14.52;2.60;;;;;;;;;;4968780;28;20042;-85
2023/03/24 06:41:52;;;;;;;15.23;3.67;;;;;;;;;;4955334;28;20046;-85
2023/03/24 06:44:18;;;;;;;11.50;2.83;;;;;;;;;;4951954;28;20505;-85
2023/03/24 06:46:44;;;;;;;11.27;2.50;;;;;;;;;;4960355;28;20518;-85
2023/03/24 06:49:10;;;;;;;19.25;3.58;;;;;;;;;;4959833;28;20185;-84
2023/03/24 06:51:36;;;;;;;15.10;3.75;;;;;;;;;;4965490;28;20536;-84
2023/03/24 06:54:03;;;;;;;11.93;2.58;;;;;;;;;;4962477;28;20045;-84
2023/03/24 06:56:29;;;;;;;15.52;3.00;;;;;;;;;;4966463;28;20049;-84
2023/03/24 06:58:55;;;;;;;16.92;3.28;;;;;;;;;;4961160;28;20101;-84
2023/03/24 07:01:23;;;;;;;15.95;2.83;;;;;;;;;;4960775;28;20134;-84
2023/03/24 07:03:49;;;;;;;13.98;3.80;;;;;;;;;;4961673;28;20492;-84
2023/03/24 07:06:15;;;;;;;16.67;3.10;;;;;;;;;;4970010;28;20048;-84
2023/03/24 07:08:41;;;;;;;21.08;3.72;;;;;;;;;;4961369;28;20106;-84
2023/03/24 07:11:08;;;;;;;19.48;4.40;;;;;;;;;;4970460;28;20520;-84
2023/03/24 07:13:34;;;;;;;12.93;2.95;;;;;;;;;;4969444;28;20078;-84
2023/03/24 07:16:00;;;;;;;22.52;3.70;;;;;;;;;;4968312;28;20038;-84
2023/03/24 07:18:26;;;;;;;16.27;3.05;;;;;;;;;;4954821;28;20127;-84
2023/03/24 07:20:52;;;;;;;16.77;3.40;;;;;;;;;;4961974;28;20132;-84
2023/03/24 07:23:18;;;;;;;17.13;3.35;;;;;;;;;;4963878;28;20047;-84
2023/03/24 07:25:45;;;;;;;19.83;4.13;;;;;;;;;;4961904;28;20076;-84
2023/03/24 07:28:11;;;;;;;13.63;3.83;;;;;;;;;;4964796;28;20397;-84
2023/03/24 07:30:37;;;;;;;17.77;3.45;;;;;;;;;;4950215;28;20038;-84
2023/03/24 07:33:04;;;;;;;12.30;3.22;;;;;;;;;;4960077;28;20053;-84
2023/03/24 07:35:30;;;;;;;17.88;4.10;;;;;;;;;;4952420;28;20515;-84
2023/03/24 07:37:59;;;;;;;21.73;4.32;;;;;;;;;;4960524;28;20042;-84
2023/03/24 07:40:25;;;;;;;20.35;4.15;;;;;;;;;;4955562;28;20038;-84
2023/03/24 07:42:51;;;;;;;16.13;3.63;;;;;;;;;;4957179;28;20101;-84
2023/03/24 07:45:18;;;;;;;19.05;3.63;;;;;;;;;;4960393;28;20112;-84
2023/03/24 07:47:45;;;;;;;19.27;3.95;;;10.70;99.90;;;;;;4967342;28;20042;-84
2023/03/24 07:50:12;;;;;;;32.42;4.93;;;;;;;;;;4955563;28;20740;-84
2023/03/24 07:52:42;;;;;;;17.25;4.30;;;;;;;;;;4954384;28;20045;-84
2023/03/24 07:55:10;;;;;;;19.40;3.83;;;10.80;99.90;;;;;;4966854;28;20050;-85
2023/03/24 07:57:37;;;;;;;26.55;4.55;;;;;;;;;;4965483;28;20034;-84
2023/03/24 08:00:29;;;;;;;26.67;4.10;;;;;;;;;;4952141;28;20564;-84
2023/03/24 08:02:53;;;;;;;21.20;3.58;;;;;;;;;;4970275;28;20057;-84
2023/03/24 08:05:20;;;;;;;19.63;3.67;;;;;;;;;;4962261;28;20113;-84
2023/03/24 08:07:52;;;;;;;21.45;3.95;;;;;;;;;;4960173;28;20460;-84
2023/03/24 08:10:23;;;;;;;24.23;4.68;;;10.90;99.90;;;;;;4962727;28;20054;-84
2023/03/24 08:12:49;;;;;;;19.67;3.50;;;11.10;99.90;;;;;;4958999;28;20401;-84
2023/03/24 08:15:16;;;;;;;26.60;4.30;;;;;;;;;;4967247;28;20046;-84
2023/03/24 08:17:42;;;;;;;17.73;4.40;;;;;;;;;;4965615;28;20041;-84
2023/03/24 08:20:13;;;;;;;21.33;4.22;;;11.40;99.90;;;;;;4963881;28;20049;-84
2023/03/24 08:22:40;;;;;;;15.23;3.55;;;;;;;;;;4963383;28;20519;-84
2023/03/24 08:25:07;;;;;;;17.55;4.03;;;;;;;;;;4960622;28;20422;-84
2023/03/24 08:27:33;;;;;;;18.55;3.78;;;;;;;;;;4959537;28;20065;-84
2023/03/24 08:29:59;;;;;;;18.55;3.53;;;;;;;;;;4954825;28;20053;-85
2023/03/24 08:32:25;;;;;;;23.15;3.97;;;;;;;;;;4950263;28;20413;-84
2023/03/24 08:34:51;;;;;;;16.20;4.03;;;;;;;;;;4963045;28;20038;-84
2023/03/24 08:37:17;;;;;;;20.52;4.20;;;;;;;;;;4952056;28;20085;-84
2023/03/24 08:39:43;;;;;;;22.13;3.83;;;;;;;;;;4968636;28;20088;-84
2023/03/24 08:42:09;;;;;;;14.38;3.72;;;;;;;;;;4963785;28;20086;-84
2023/03/24 08:44:35;;;;;;;22.58;4.15;;;13.30;99.90;;;;;;4968795;28;20575;-84
2023/03/24 08:47:02;;;;;;;14.23;4.43;;;13.40;99.90;;;;;;4961600;28;20069;-84
2023/03/24 08:49:28;;;;;;;20.77;3.55;;;;;;;;;;4959296;28;20072;-84
2023/03/24 08:51:55;;;;;;;14.98;3.45;;;;;;;;;;4951612;28;20046;-84
2023/03/24 08:54:22;;;;;;;19.08;3.42;;;;;;;;;;4961930;28;20141;-85
2023/03/24 08:56:48;;;;;;;13.90;3.17;;;;;;;;;;4962918;28;20444;-85
2023/03/24 08:59:14;;;;;;;15.60;4.20;;;;;;;;;;4961208;28;20050;-85
2023/03/24 09:01:40;;;;;;;19.58;3.60;;;16.40;99.90;;;;;;4963997;28;20038;-84
2023/03/24 09:04:07;;;;;;;13.10;2.92;;;;;;;;;;4962095;28;20053;-85
2023/03/24 09:06:33;;;;;;;16.85;3.58;;;;;;;;;;4949383;28;20049;-85
2023/03/24 09:08:58;;;;;;;16.88;3.10;;;17.60;99.90;;;;;;4961192;28;20042;-85
2023/03/24 09:11:24;;;;;;;17.75;3.67;;;;;;;;;;4956221;28;20038;-85
2023/03/24 09:13:50;;;;;;;21.40;3.55;;;17.10;99.90;;;;;;4951757;28;20042;-85
2023/03/24 09:16:16;;;;;;;20.05;4.53;;;;;;;;;;4968983;28;20038;-85
2023/03/24 09:18:43;;;;;;;15.23;3.30;;;;;;;;;;4963332;28;20381;-85
2023/03/24 09:21:09;;;;;;;14.43;2.97;;;;;;;;;;4947883;28;20065;-85
2023/03/24 09:23:35;;;;;;;14.40;3.47;;;16.40;99.90;;;;;;4962391;28;20104;-85
2023/03/24 09:26:02;;;;;;;17.33;3.60;;;16.00;99.90;;;;;;4958769;28;20406;-85
2023/03/24 09:28:28;;;;;;;22.30;4.20;;;;;;;;;;4953114;28;20050;-85
2023/03/24 09:31:03;;;;;;;19.40;4.20;;;16.60;99.90;;;;;;4953031;28;20038;-85
2023/03/24 09:33:29;;;;;;;25.35;4.28;;;16.00;99.90;;;;;;4962169;28;20046;-85
2023/03/24 09:35:57;;;;;;;22.38;4.85;;;15.50;99.90;;;;;;4968198;28;20076;-85
2023/03/24 09:38:23;;;;;;;12.07;3.08;;;;;;;;;;4968368;28;20614;-84
2023/03/24 09:40:56;;;;;;;23.50;3.60;;;14.60;99.90;;;;;;4962570;28;20074;-85
2023/03/24 09:43:46;;;;;;;18.70;4.13;;;;;;;;;;4967219;28;20047;-85
2023/03/24 09:47:06;;;;;;;14.55;3.33;;;14.30;99.90;;;;;;4953369;28;20573;-85
2023/03/24 09:49:37;;;;;;;17.77;3.30;;;14.10;99.90;;;;;;4977272;28;20417;-84
2023/03/24 09:52:10;;;;;;;13.90;3.58;;;14.50;99.90;;;;;;4963629;28;20432;-85
2023/03/24 09:55:03;;;;;;;20.23;4.47;;;14.60;99.90;;;;;;4940250;28;20042;-85
2023/03/24 09:57:41;;;;;;;22.67;4.50;;;15.00;99.90;;;;;;4949918;28;20039;-84
2023/03/24 10:00:29;;;;;;;13.02;2.55;;;15.20;99.90;;;;;;4955117;28;20885;-85
2023/03/24 10:03:00;;;;;;;21.08;4.68;;;14.90;99.90;;;;;;4964724;28;20039;-84
2023/03/24 10:05:38;;;;;;;20.40;3.25;;;14.80;99.90;;;;;;4952632;28;20086;-85
2023/03/24 10:08:06;;;;;;;16.92;3.03;;;14.70;99.90;;;;;;4967408;28;20051;-85
2023/03/24 10:10:52;;;;;;;10.13;2.53;;;14.40;99.90;;;;;;4962358;28;20042;-85
2023/03/24 10:13:24;;;;;;;18.42;3.75;;;14.10;99.90;;;;;;4961694;28;20085;-85
2023/03/24 10:16:06;;;;;;;22.13;4.60;;;14.10;99.90;;;;;;4955807;28;20039;-85
2023/03/24 10:18:46;;;;;;;19.27;3.17;;;14.20;99.90;;;;;;4949170;28;20047;-85
2023/03/24 10:21:21;;;;;;;18.52;4.43;;;14.60;99.90;;;;;;4953236;28;20519;-85
2023/03/24 10:24:08;;;;;;;14.48;2.80;;;14.70;99.90;;;;;;4954674;28;20515;-85
2023/03/24 10:27:01;;;;;;;16.55;3.17;;;15.20;99.90;;;;;;4965342;28;20094;-84
2023/03/24 10:29:33;;;;;;;19.30;4.70;;;15.10;99.90;;;;;;4959394;28;20478;-85
2023/03/24 10:32:24;;;;;;;15.30;2.92;;;15.20;99.90;;;;;;4957670;28;20042;-84
2023/03/24 10:34:59;;;;;;;16.65;2.70;;;15.20;99.90;;;;;;4956098;28;20050;-85
2023/03/24 10:37:28;;;;;;;16.20;3.13;;;15.00;99.90;;;;;;4951517;28;20035;-85
2023/03/24 10:39:54;;;;;;;13.35;2.85;;;;;;;;;;4953861;28;20503;-85
2023/03/24 10:42:31;;;;;;;13.25;2.55;;;14.40;99.90;;;;;;4946997;28;20054;-85
2023/03/24 10:44:57;;;;;;;20.05;3.65;;;14.10;99.90;;;;;;4961582;28;20149;-85
2023/03/24 10:47:26;;;;;;;17.73;3.60;;;14.10;99.90;;;;;;4955137;28;20046;-85
2023/03/24 10:49:59;;;;;;;10.88;2.95;;;14.10;99.90;;;;;;4954751;28;20433;-85
2023/03/24 10:52:25;;;;;;;14.10;3.25;;;14.10;99.90;;;;;;4950232;28;20069;-85
2023/03/24 10:55:05;;;;;;;15.07;2.75;;;14.10;99.90;;;;;;4965510;28;20097;-85
2023/03/24 10:57:31;;;;;;;18.75;3.83;;;14.20;99.90;;;;;;4956894;28;20050;-84
2023/03/24 11:00:18;;;;;;;16.30;3.17;;;14.30;99.90;;;;;;4958880;28;20486;-85
2023/03/24 11:02:51;;;;;;;16.67;3.08;;;14.30;99.90;;;;;;4964016;28;20051;-84
2023/03/24 11:05:21;;;;;;;14.55;3.50;;;14.40;99.90;;;;;;4961616;28;20069;-85
2023/03/24 11:07:49;;;;;;;20.30;4.93;;;14.40;99.90;;;;;;4942983;28;20043;-85
2023/03/24 11:10:17;;;;;;;16.77;2.92;;;14.20;99.90;;;;;;4944607;28;20047;-84
2023/03/24 11:13:04;;;;;;;14.00;3.15;;;14.20;99.90;;;;;;4959486;28;20038;-84
2023/03/24 11:15:32;;;;;;;13.55;3.13;;;14.50;99.90;;;;;;4963401;28;20056;-85
2023/03/24 11:18:16;;;;;;;11.82;2.30;;;14.50;99.90;;;;;;4964064;28;20038;-85
2023/03/24 11:20:44;;;;;;;14.77;4.10;;;14.70;99.90;;;;;;4959063;28;20084;-85
2023/03/24 11:23:10;;;;;;;14.55;4.40;;;;;;;;;;4956816;28;20058;-85
2023/03/24 11:25:39;;;;;;;12.07;2.55;;;13.90;99.90;;;;;;4963333;28;20066;-85
2023/03/24 11:28:07;;;;;;;14.13;2.85;;;14.60;99.90;;;;;;4952550;28;20090;-85
2023/03/24 11:30:53;;;;;;;20.35;3.65;;;14.70;99.90;;;;;;4958398;28;20039;-85
2023/03/24 11:33:19;;;;;;;14.20;3.50;;;;;;;;;;4951200;28;20047;-85
2023/03/24 11:35:46;;;;;;;13.15;2.75;;;;;;;;;;4961198;28;20107;-84
2023/03/24 11:38:26;;;;;;;18.08;3.15;;;14.20;99.90;;;;;;4952717;28;20527;-84
2023/03/24 11:40:58;;;;;;;14.18;2.13;;;14.10;99.90;;;;;;4961685;28;20055;-85
2023/03/24 11:43:26;;;;;;;11.80;2.33;;;;;;;;;;4957975;28;20420;-85
2023/03/24 11:46:12;;;;;;;12.20;2.63;;;15.00;99.90;;;;;;4957415;28;20150;-85
2023/03/24 11:48:51;;;;;;;18.52;3.60;;;14.60;99.90;;;;;;4947754;28;20089;-85
2023/03/24 11:51:33;;;;;;;11.45;2.47;;;14.90;99.90;;;;;;4965015;28;20042;-85
2023/03/24 11:54:02;;;;;;;15.40;3.33;;;14.90;99.90;;;;;;4966025;28;20085;-85
2023/03/24 11:56:30;;;;;;;10.70;2.47;;;15.00;99.90;;;;;;4958744;28;20039;-85
2023/03/24 11:59:13;;;;;;;12.30;2.90;;;15.30;99.90;;;;;;4962564;28;20047;-85
2023/03/24 12:01:55;;;;;;;15.05;2.90;;;15.20;99.90;;;;;;4958312;28;20509;-85
2023/03/24 12:04:38;;;;;;;12.38;2.22;;;15.20;99.90;;;;;;4960039;28;20062;-85
2023/03/24 12:07:34;;;;;;;22.00;3.13;;;15.10;99.90;;;;;;4957444;28;20050;-85
2023/03/24 12:10:33;;;;;;;18.55;4.30;;;14.80;99.90;;;;;;4948405;28;20043;-85
2023/03/24 12:13:15;;;;;;;11.15;2.47;;;15.00;99.90;;;;;;4977472;28;20035;-85
2023/03/24 12:16:18;;;;;;;11.13;3.00;;;15.20;99.90;;;;;;4965873;28;20046;-85
2023/03/24 12:18:52;;;;;;;16.40;2.30;;;15.10;99.90;;;;;;4962199;28;20102;-85
2023/03/24 12:21:33;;;;;;;11.32;2.65;;;14.80;99.90;;;;;;4964242;28;20054;-84
2023/03/24 12:24:17;;;;;;;10.82;2.20;;;14.80;99.90;;;;;;4962504;28;20049;-85
2023/03/24 12:26:42;;;;;;;10.55;2.00;;;14.80;99.90;;;;;;4950395;28;20046;-85
2023/03/24 12:29:34;;;;;;;13.48;2.63;;;14.80;99.90;;;;;;4950007;28;20096;-85
2023/03/24 12:32:00;;;;;;;16.77;3.83;;;;;;;;;;4939717;28;20114;-85
2023/03/24 12:34:32;;;;;;;11.82;2.75;;;14.60;99.90;;;;;;4962275;28;20069;-85
2023/03/24 12:37:05;;;;;;;12.82;2.15;;;14.50;99.90;;;;;;4950625;28;20404;-84
2023/03/24 12:39:34;;;;;;;12.00;3.70;;;14.60;99.90;;;;;;4957767;28;20054;-85
2023/03/24 12:42:15;;;;;;;13.35;3.55;;;14.50;99.90;;;;;;4961672;28;20485;-85
2023/03/24 12:44:49;;;;;;;17.00;2.78;;;14.50;99.90;;;;;;4959496;28;20059;-85
2023/03/24 12:47:39;;;;;;;10.00;2.13;;;14.70;99.90;;;;;;4964595;28;20097;-85
2023/03/24 12:50:20;;;;;;;16.67;2.53;;;14.60;99.90;;;;;;4957338;28;20043;-85
2023/03/24 12:53:06;;;;;;;8.57;2.38;;;14.50;99.90;;;;;;4956647;28;20039;-85
2023/03/24 12:55:31;;;;;;;;;;;14.60;99.90;;;;;;4963483;28;20130;-85
2023/03/24 12:58:20;;;;;;;10.82;2.13;;;14.90;99.90;;;;;;4955950;28;19923;-85
2023/03/24 13:00:53;;;;;;;12.18;2.10;;;14.80;99.90;;;;;;4964287;28;20046;-85
2023/03/24 13:03:27;;;;;;;11.13;1.92;;;14.90;99.90;;;;;;4959676;28;20085;-85
2023/03/24 13:05:56;;;;;;;15.93;3.25;;;14.50;99.90;;;;;;4953996;28;20045;-85
2023/03/24 13:08:28;;;;;;;10.73;2.83;;;14.50;99.90;;;;;;4954065;28;20047;-85
2023/03/24 13:11:03;;;;;;;12.23;2.20;;;14.70;99.90;;;;;;4955624;28;20090;-84
2023/03/24 13:13:35;;;;;;;15.95;2.47;;;14.50;99.90;;;;;;4959712;28;20456;-85
2023/03/24 13:16:08;;;;;;;15.27;2.75;;;14.70;99.90;;;;;;4965681;28;20035;-85
2023/03/24 13:18:38;;;;;;;20.63;3.42;;;14.50;99.90;;;;;;4965348;28;20057;-84
2023/03/24 13:21:10;;;;;;;15.13;2.90;;;14.70;99.90;;;;;;4946432;28;20564;-85
2023/03/24 13:24:10;;;;;;;13.63;2.35;;;14.50;99.90;;;;;;4958372;28;20051;-85
2023/03/24 13:26:48;;;;;;;11.82;2.58;;;14.80;99.90;;;;;;4937810;28;20074;-85
2023/03/24 13:29:39;;;;;;;11.45;2.22;;;14.90;99.90;;;;;;4950669;28;20047;-85
2023/03/24 13:32:11;;;;;;;13.07;2.05;;;14.70;99.90;;;;;;4955462;28;20042;-85
2023/03/24 13:34:48;;;;;;;12.80;2.35;;;14.60;99.90;;;;;;4963431;28;20049;-85
2023/03/24 13:37:21;;;;;;;69.47;7.03;;;14.60;99.90;;;;;;4962689;28;20572;-85
2023/03/24 13:39:53;;;;;;;16.27;2.92;;;14.30;99.90;;;;;;4944626;28;20038;-86
2023/03/24 13:42:35;;;;;;;16.70;2.30;;;14.60;99.90;;;;;;4953327;28;20762;-85
2023/03/24 13:45:03;;;;;;;13.65;2.25;;;14.40;99.90;;;;;;4948047;28;20066;-85
2023/03/24 13:48:01;;;;;;;29.23;3.75;;;14.40;99.90;;;;;;4964875;28;20043;-85
2023/03/24 13:50:27;;;;;;;14.55;2.08;;;;;;;;;;4956199;28;20070;-85
2023/03/24 13:52:54;;;;;;;13.23;2.17;;;;;;;;;;4964481;28;20054;-85
2023/03/24 13:55:25;;;;;;;9.43;1.67;;;14.20;99.90;;;;;;4963248;28;20089;-85
2023/03/24 13:58:00;;;;;;;22.50;3.25;;;14.50;99.90;;;;;;4954969;28;20038;-85
2023/03/24 14:00:27;;;;;;;10.93;2.30;;;14.30;99.90;;;;;;4956016;28;20046;-85
2023/03/24 14:03:12;;;;;;;17.30;2.40;;;14.40;99.90;;;;;;4961863;28;20082;-85
2023/03/24 14:06:04;;;;;;;14.88;2.08;;;14.20;99.90;;;;;;4955267;28;20516;-85
2023/03/24 14:09:01;;;;;;;12.90;2.35;;;14.30;99.90;;;;;;4964094;28;20043;-85
2023/03/24 14:11:32;;;;;;;14.93;2.65;;;14.00;99.90;;;;;;4953674;28;20416;-85